sensor_id;sensor_type;location;lat;lon;timestamp;pressure;altitude;pressure_sealevel;temperature;humidity
7433;BME280;32233;49.500;7.764;2023-03-11T00:00:45;97504.09;;;0.02;73.76
7433;BME280;32233;49.500;7.764;2023-03-11T00:03:14;97510.00;;;0.12;73.55
7433;BME280;32233;49.500;7.764;2023-03-11T00:05:43;97510.94;;;0.11;71.73
7433;BME280;32233;49.500;7.764;2023-03-11T00:08:16;97510.47;;;0.16;71.96
7433;BME280;32233;49.500;7.764;2023-03-11T00:10:45;97511.47;;;0.23;70.32
7433;BME280;32233;49.500;7.764;2023-03-11T00:13:14;97512.75;;;0.19;71.95
7433;BME280;32233;49.500;7.764;2023-03-11T00:15:43;97503.53;;;0.24;72.20
7433;BME280;32233;49.500;7.764;2023-03-11T00:18:10;97511.31;;;0.24;72.90
7433;BME280;32233;49.500;7.764;2023-03-11T00:20:39;97515.66;;;0.16;71.44
7433;BME280;32233;49.500;7.764;2023-03-11T00:23:07;97525.38;;;0.06;72.50
7433;BME280;32233;49.500;7.764;2023-03-11T00:25:36;97535.16;;;0.20;73.39
7433;BME280;32233;49.500;7.764;2023-03-11T00:28:04;97529.28;;;0.02;72.85
7433;BME280;32233;49.500;7.764;2023-03-11T00:30:33;97544.72;;;0.11;73.33
7433;BME280;32233;49.500;7.764;2023-03-11T00:32:59;97543.13;;;0.18;73.88
7433;BME280;32233;49.500;7.764;2023-03-11T00:35:29;97543.44;;;0.15;73.21
7433;BME280;32233;49.500;7.764;2023-03-11T00:37:58;97550.38;;;0.07;72.80
7433;BME280;32233;49.500;7.764;2023-03-11T00:40:27;97543.56;;;0.06;73.58
7433;BME280;32233;49.500;7.764;2023-03-11T00:42:54;97546.72;;;-0.17;73.76
7433;BME280;32233;49.500;7.764;2023-03-11T00:45:21;97527.19;;;-0.29;74.48
7433;BME280;32233;49.500;7.764;2023-03-11T00:47:49;97537.53;;;-0.37;76.08
7433;BME280;32233;49.500;7.764;2023-03-11T00:50:22;97532.03;;;-0.34;75.83
7433;BME280;32233;49.500;7.764;2023-03-11T00:52:50;97519.78;;;-0.50;76.75
7433;BME280;32233;49.500;7.764;2023-03-11T00:55:23;97523.50;;;-0.53;76.37
7433;BME280;32233;49.500;7.764;2023-03-11T00:57:56;97522.69;;;-0.53;78.13
7433;BME280;32233;49.500;7.764;2023-03-11T01:00:26;97552.31;;;-0.64;79.65
7433;BME280;32233;49.500;7.764;2023-03-11T01:02:55;97550.00;;;-0.67;78.70
7433;BME280;32233;49.500;7.764;2023-03-11T01:05:24;97562.34;;;-0.69;78.15
7433;BME280;32233;49.500;7.764;2023-03-11T01:07:51;97562.69;;;-0.90;79.47
7433;BME280;32233;49.500;7.764;2023-03-11T01:10:18;97547.00;;;-0.80;78.75
7433;BME280;32233;49.500;7.764;2023-03-11T01:12:45;97555.38;;;-0.68;75.63
7433;BME280;32233;49.500;7.764;2023-03-11T01:15:29;97558.03;;;-0.60;76.46
7433;BME280;32233;49.500;7.764;2023-03-11T01:17:57;97540.88;;;-0.53;76.67
7433;BME280;32233;49.500;7.764;2023-03-11T01:20:24;97542.22;;;-0.67;77.12
7433;BME280;32233;49.500;7.764;2023-03-11T01:22:51;97528.44;;;-0.67;78.81
7433;BME280;32233;49.500;7.764;2023-03-11T01:25:19;97544.63;;;-0.73;78.26
7433;BME280;32233;49.500;7.764;2023-03-11T01:27:46;97531.38;;;-0.88;80.13
7433;BME280;32233;49.500;7.764;2023-03-11T01:30:16;97538.66;;;-0.92;81.49
7433;BME280;32233;49.500;7.764;2023-03-11T01:32:44;97524.28;;;-1.04;82.99
7433;BME280;32233;49.500;7.764;2023-03-11T01:35:15;97538.59;;;-1.00;83.79
7433;BME280;32233;49.500;7.764;2023-03-11T01:37:42;97543.06;;;-1.10;83.87
7433;BME280;32233;49.500;7.764;2023-03-11T01:40:17;97547.28;;;-1.09;84.45
7433;BME280;32233;49.500;7.764;2023-03-11T01:42:44;97559.03;;;-1.15;83.54
7433;BME280;32233;49.500;7.764;2023-03-11T01:45:30;97584.09;;;-1.23;83.88
7433;BME280;32233;49.500;7.764;2023-03-11T01:48:01;97591.06;;;-1.24;84.35
7433;BME280;32233;49.500;7.764;2023-03-11T01:50:33;97591.59;;;-1.20;83.67
7433;BME280;32233;49.500;7.764;2023-03-11T01:53:00;97595.97;;;-1.21;83.04
7433;BME280;32233;49.500;7.764;2023-03-11T01:55:27;97595.69;;;-1.18;82.47
7433;BME280;32233;49.500;7.764;2023-03-11T01:57:54;97604.47;;;-1.29;83.57
7433;BME280;32233;49.500;7.764;2023-03-11T02:00:21;97594.91;;;-1.28;85.02
7433;BME280;32233;49.500;7.764;2023-03-11T02:02:53;97584.91;;;-1.23;84.31
7433;BME280;32233;49.500;7.764;2023-03-11T02:05:23;97580.25;;;-1.37;85.31
7433;BME280;32233;49.500;7.764;2023-03-11T02:07:52;97566.31;;;-1.36;84.67
7433;BME280;32233;49.500;7.764;2023-03-11T02:10:23;97568.84;;;-1.44;87.09
7433;BME280;32233;49.500;7.764;2023-03-11T02:12:50;97558.00;;;-1.58;87.41
7433;BME280;32233;49.500;7.764;2023-03-11T02:15:23;97557.00;;;-1.47;87.08
7433;BME280;32233;49.500;7.764;2023-03-11T02:17:50;97560.16;;;-1.53;87.49
7433;BME280;32233;49.500;7.764;2023-03-11T02:20:26;97555.41;;;-1.58;87.98
7433;BME280;32233;49.500;7.764;2023-03-11T02:22:59;97558.75;;;-1.65;88.56
7433;BME280;32233;49.500;7.764;2023-03-11T02:25:38;97564.00;;;-1.75;88.56
7433;BME280;32233;49.500;7.764;2023-03-11T02:28:09;97570.44;;;-1.79;88.51
7433;BME280;32233;49.500;7.764;2023-03-11T02:30:40;97562.41;;;-1.86;89.08
7433;BME280;32233;49.500;7.764;2023-03-11T02:33:08;97569.38;;;-1.86;90.72
7433;BME280;32233;49.500;7.764;2023-03-11T02:35:35;97568.84;;;-1.90;91.33
7433;BME280;32233;49.500;7.764;2023-03-11T02:38:02;97570.88;;;-1.84;89.06
7433;BME280;32233;49.500;7.764;2023-03-11T02:40:54;97574.38;;;-1.85;89.60
7433;BME280;32233;49.500;7.764;2023-03-11T02:43:33;97576.69;;;-1.82;88.49
7433;BME280;32233;49.500;7.764;2023-03-11T02:46:03;97573.56;;;-1.85;87.78
7433;BME280;32233;49.500;7.764;2023-03-11T02:48:33;97565.06;;;-1.95;88.05
7433;BME280;32233;49.500;7.764;2023-03-11T02:51:01;97565.44;;;-1.90;89.35
7433;BME280;32233;49.500;7.764;2023-03-11T02:53:31;97572.09;;;-1.88;89.27
7433;BME280;32233;49.500;7.764;2023-03-11T02:56:00;97569.81;;;-2.01;91.07
7433;BME280;32233;49.500;7.764;2023-03-11T02:58:28;97578.94;;;-1.96;88.99
7433;BME280;32233;49.500;7.764;2023-03-11T03:00:55;97580.72;;;-1.97;89.69
7433;BME280;32233;49.500;7.764;2023-03-11T03:03:22;97590.69;;;-2.02;88.68
7433;BME280;32233;49.500;7.764;2023-03-11T03:05:48;97593.00;;;-1.99;91.59
7433;BME280;32233;49.500;7.764;2023-03-11T03:08:15;97594.00;;;-2.10;93.75
7433;BME280;32233;49.500;7.764;2023-03-11T03:10:42;97588.53;;;-2.07;89.94
7433;BME280;32233;49.500;7.764;2023-03-11T03:13:08;97595.97;;;-1.94;89.50
7433;BME280;32233;49.500;7.764;2023-03-11T03:15:35;97596.50;;;-1.90;90.00
7433;BME280;32233;49.500;7.764;2023-03-11T03:18:02;97599.25;;;-1.92;89.41
7433;BME280;32233;49.500;7.764;2023-03-11T03:20:28;97602.75;;;-1.83;89.12
7433;BME280;32233;49.500;7.764;2023-03-11T03:22:59;97598.13;;;-1.89;89.00
7433;BME280;32233;49.500;7.764;2023-03-11T03:25:29;97600.50;;;-1.96;90.04
7433;BME280;32233;49.500;7.764;2023-03-11T03:27:59;97595.16;;;-1.94;90.62
7433;BME280;32233;49.500;7.764;2023-03-11T03:30:27;97597.59;;;-1.93;89.83
7433;BME280;32233;49.500;7.764;2023-03-11T03:32:54;97599.56;;;-2.05;90.25
7433;BME280;32233;49.500;7.764;2023-03-11T03:35:21;97605.31;;;-2.11;90.39
7433;BME280;32233;49.500;7.764;2023-03-11T03:38:08;97603.44;;;-2.18;92.81
7433;BME280;32233;49.500;7.764;2023-03-11T03:40:36;97601.59;;;-2.36;93.84
7433;BME280;32233;49.500;7.764;2023-03-11T03:43:05;97614.28;;;-2.42;94.69
7433;BME280;32233;49.500;7.764;2023-03-11T03:45:33;97611.63;;;-2.23;93.17
7433;BME280;32233;49.500;7.764;2023-03-11T03:48:00;97606.88;;;-2.37;93.09
7433;BME280;32233;49.500;7.764;2023-03-11T03:50:30;97619.44;;;-2.33;92.80
7433;BME280;32233;49.500;7.764;2023-03-11T03:52:57;97618.59;;;-2.33;93.02
7433;BME280;32233;49.500;7.764;2023-03-11T03:55:24;97626.09;;;-2.30;92.33
7433;BME280;32233;49.500;7.764;2023-03-11T03:57:52;97637.03;;;-2.56;95.93
7433;BME280;32233;49.500;7.764;2023-03-11T04:00:22;97633.19;;;-2.42;94.50
7433;BME280;32233;49.500;7.764;2023-03-11T04:02:56;97630.59;;;-2.42;94.25
7433;BME280;32233;49.500;7.764;2023-03-11T04:05:31;97639.78;;;-2.57;95.47
7433;BME280;32233;49.500;7.764;2023-03-11T04:07:57;97632.81;;;-2.66;96.46
7433;BME280;32233;49.500;7.764;2023-03-11T04:10:24;97634.47;;;-2.75;96.93
7433;BME280;32233;49.500;7.764;2023-03-11T04:12:50;97642.66;;;-2.99;97.09
7433;BME280;32233;49.500;7.764;2023-03-11T04:15:17;97641.28;;;-3.03;96.83
7433;BME280;32233;49.500;7.764;2023-03-11T04:17:44;97645.09;;;-2.88;96.75
7433;BME280;32233;49.500;7.764;2023-03-11T04:20:11;97644.56;;;-2.72;96.35
7433;BME280;32233;49.500;7.764;2023-03-11T04:22:40;97646.31;;;-2.72;96.31
7433;BME280;32233;49.500;7.764;2023-03-11T04:25:07;97642.63;;;-2.51;95.48
7433;BME280;32233;49.500;7.764;2023-03-11T04:27:34;97631.31;;;-2.40;94.41
7433;BME280;32233;49.500;7.764;2023-03-11T04:30:02;97637.44;;;-2.41;94.92
7433;BME280;32233;49.500;7.764;2023-03-11T04:32:30;97628.31;;;-2.55;97.55
7433;BME280;32233;49.500;7.764;2023-03-11T04:34:57;97631.19;;;-2.58;97.33
7433;BME280;32233;49.500;7.764;2023-03-11T04:37:27;97631.44;;;-2.51;97.26
7433;BME280;32233;49.500;7.764;2023-03-11T04:39:54;97643.16;;;-2.47;98.00
7433;BME280;32233;49.500;7.764;2023-03-11T04:42:21;97649.16;;;-2.46;96.63
7433;BME280;32233;49.500;7.764;2023-03-11T04:44:48;97658.13;;;-2.51;97.12
7433;BME280;32233;49.500;7.764;2023-03-11T04:47:14;97659.38;;;-2.74;95.93
7433;BME280;32233;49.500;7.764;2023-03-11T04:49:42;97667.97;;;-2.64;95.45
7433;BME280;32233;49.500;7.764;2023-03-11T04:52:09;97657.78;;;-2.65;96.13
7433;BME280;32233;49.500;7.764;2023-03-11T04:54:36;97667.97;;;-2.83;97.51
7433;BME280;32233;49.500;7.764;2023-03-11T04:57:03;97668.13;;;-2.85;98.22
7433;BME280;32233;49.500;7.764;2023-03-11T04:59:30;97667.94;;;-3.03;99.66
7433;BME280;32233;49.500;7.764;2023-03-11T05:01:56;97668.63;;;-2.91;99.86
7433;BME280;32233;49.500;7.764;2023-03-11T05:04:23;97668.66;;;-3.01;100.00
7433;BME280;32233;49.500;7.764;2023-03-11T05:06:50;97659.53;;;-3.05;100.00
7433;BME280;32233;49.500;7.764;2023-03-11T05:09:16;97663.88;;;-3.05;100.00
7433;BME280;32233;49.500;7.764;2023-03-11T05:11:43;97662.66;;;-3.01;100.00
7433;BME280;32233;49.500;7.764;2023-03-11T05:14:11;97660.88;;;-3.01;100.00
7433;BME280;32233;49.500;7.764;2023-03-11T05:16:38;97654.63;;;-2.98;100.00
7433;BME280;32233;49.500;7.764;2023-03-11T05:19:04;97655.31;;;-2.96;100.00
7433;BME280;32233;49.500;7.764;2023-03-11T05:21:51;97664.56;;;-3.03;100.00
7433;BME280;32233;49.500;7.764;2023-03-11T05:24:18;97666.47;;;-2.95;100.00
7433;BME280;32233;49.500;7.764;2023-03-11T05:26:45;97677.50;;;-2.84;100.00
7433;BME280;32233;49.500;7.764;2023-03-11T05:29:14;97676.41;;;-3.01;100.00
7433;BME280;32233;49.500;7.764;2023-03-11T05:31:41;97685.22;;;-3.22;100.00
7433;BME280;32233;49.500;7.764;2023-03-11T05:34:08;97677.47;;;-3.22;100.00
7433;BME280;32233;49.500;7.764;2023-03-11T05:36:35;97671.84;;;-3.47;100.00
7433;BME280;32233;49.500;7.764;2023-03-11T05:39:01;97676.00;;;-3.56;100.00
7433;BME280;32233;49.500;7.764;2023-03-11T05:41:30;97683.66;;;-3.44;100.00
7433;BME280;32233;49.500;7.764;2023-03-11T05:43:57;97688.56;;;-3.51;100.00
7433;BME280;32233;49.500;7.764;2023-03-11T05:46:23;97687.38;;;-3.37;100.00
7433;BME280;32233;49.500;7.764;2023-03-11T05:48:50;97684.59;;;-3.55;100.00
7433;BME280;32233;49.500;7.764;2023-03-11T05:51:17;97678.72;;;-3.57;100.00
7433;BME280;32233;49.500;7.764;2023-03-11T05:53:46;97679.03;;;-3.51;100.00
7433;BME280;32233;49.500;7.764;2023-03-11T05:56:19;97681.88;;;-3.44;100.00
7433;BME280;32233;49.500;7.764;2023-03-11T05:58:47;97681.78;;;-3.42;100.00
7433;BME280;32233;49.500;7.764;2023-03-11T06:01:17;97683.56;;;-3.24;100.00
7433;BME280;32233;49.500;7.764;2023-03-11T06:03:44;97696.75;;;-3.36;100.00
7433;BME280;32233;49.500;7.764;2023-03-11T06:06:11;97704.88;;;-3.41;100.00
7433;BME280;32233;49.500;7.764;2023-03-11T06:08:39;97705.06;;;-3.23;100.00
7433;BME280;32233;49.500;7.764;2023-03-11T06:11:08;97707.22;;;-3.28;100.00
7433;BME280;32233;49.500;7.764;2023-03-11T06:13:37;97707.84;;;-2.95;100.00
7433;BME280;32233;49.500;7.764;2023-03-11T06:16:04;97711.38;;;-3.06;100.00
7433;BME280;32233;49.500;7.764;2023-03-11T06:18:30;97711.78;;;-2.91;100.00
7433;BME280;32233;49.500;7.764;2023-03-11T06:20:58;97714.13;;;-2.79;100.00
7433;BME280;32233;49.500;7.764;2023-03-11T06:23:26;97719.88;;;-2.65;100.00
7433;BME280;32233;49.500;7.764;2023-03-11T06:25:58;97716.03;;;-2.32;100.00
7433;BME280;32233;49.500;7.764;2023-03-11T06:28:28;97713.97;;;-2.38;100.00
7433;BME280;32233;49.500;7.764;2023-03-11T06:30:55;97723.25;;;-2.55;100.00
7433;BME280;32233;49.500;7.764;2023-03-11T06:33:23;97729.16;;;-1.96;100.00
7433;BME280;32233;49.500;7.764;2023-03-11T06:35:57;97737.00;;;-1.59;99.18
7433;BME280;32233;49.500;7.764;2023-03-11T06:38:23;97730.72;;;-0.84;95.81
7433;BME280;32233;49.500;7.764;2023-03-11T06:40:50;97741.56;;;-0.35;91.84
7433;BME280;32233;49.500;7.764;2023-03-11T06:43:18;97736.66;;;-0.20;89.85
7433;BME280;32233;49.500;7.764;2023-03-11T06:45:45;97744.66;;;-0.13;87.99
7433;BME280;32233;49.500;7.764;2023-03-11T06:48:12;97741.09;;;-0.12;89.09
7433;BME280;32233;49.500;7.764;2023-03-11T06:50:39;97752.19;;;-0.28;88.88
7433;BME280;32233;49.500;7.764;2023-03-11T06:53:05;97750.88;;;0.80;85.60
7433;BME280;32233;49.500;7.764;2023-03-11T06:55:34;97759.41;;;1.98;78.47
7433;BME280;32233;49.500;7.764;2023-03-11T06:58:02;97747.94;;;2.48;73.88
7433;BME280;32233;49.500;7.764;2023-03-11T07:00:28;97751.44;;;3.42;68.84
7433;BME280;32233;49.500;7.764;2023-03-11T07:02:58;97745.53;;;4.91;63.49
7433;BME280;32233;49.500;7.764;2023-03-11T07:05:24;97743.72;;;5.06;61.09
7433;BME280;32233;49.500;7.764;2023-03-11T07:07:56;97740.19;;;5.93;58.89
7433;BME280;32233;49.500;7.764;2023-03-11T07:10:24;97747.59;;;6.39;55.79
7433;BME280;32233;49.500;7.764;2023-03-11T07:12:50;97752.31;;;6.78;55.14
7433;BME280;32233;49.500;7.764;2023-03-11T07:15:18;97755.50;;;7.15;53.21
7433;BME280;32233;49.500;7.764;2023-03-11T07:17:44;97759.84;;;7.36;52.15
7433;BME280;32233;49.500;7.764;2023-03-11T07:20:11;97760.50;;;7.71;50.02
7433;BME280;32233;49.500;7.764;2023-03-11T07:22:38;97765.72;;;6.90;52.83
7433;BME280;32233;49.500;7.764;2023-03-11T07:25:04;97770.00;;;7.52;50.33
7433;BME280;32233;49.500;7.764;2023-03-11T07:27:31;97768.03;;;7.94;50.08
7433;BME280;32233;49.500;7.764;2023-03-11T07:29:59;97772.47;;;7.74;50.73
7433;BME280;32233;49.500;7.764;2023-03-11T07:32:26;97778.28;;;7.49;50.75
7433;BME280;32233;49.500;7.764;2023-03-11T07:34:53;97782.38;;;7.72;50.29
7433;BME280;32233;49.500;7.764;2023-03-11T07:37:19;97785.22;;;7.15;50.81
7433;BME280;32233;49.500;7.764;2023-03-11T07:39:46;97792.25;;;7.08;51.16
7433;BME280;32233;49.500;7.764;2023-03-11T07:42:12;97794.44;;;7.39;51.02
7433;BME280;32233;49.500;7.764;2023-03-11T07:44:38;97795.75;;;7.15;51.77
7433;BME280;32233;49.500;7.764;2023-03-11T07:47:05;97806.38;;;7.49;50.87
7433;BME280;32233;49.500;7.764;2023-03-11T07:49:34;97808.25;;;7.07;50.20
7433;BME280;32233;49.500;7.764;2023-03-11T07:52:01;97816.09;;;6.44;51.75
7433;BME280;32233;49.500;7.764;2023-03-11T07:54:27;97820.66;;;7.26;51.26
7433;BME280;32233;49.500;7.764;2023-03-11T07:56:53;97822.25;;;7.75;50.13
7433;BME280;32233;49.500;7.764;2023-03-11T07:59:20;97829.91;;;7.15;50.75
7433;BME280;32233;49.500;7.764;2023-03-11T08:01:46;97827.97;;;7.31;49.29
7433;BME280;32233;49.500;7.764;2023-03-11T08:04:13;97826.09;;;7.25;51.52
7433;BME280;32233;49.500;7.764;2023-03-11T08:06:44;97833.16;;;6.83;50.84
7433;BME280;32233;49.500;7.764;2023-03-11T08:09:12;97830.78;;;7.29;50.35
7433;BME280;32233;49.500;7.764;2023-03-11T08:11:38;97834.97;;;7.65;49.17
7433;BME280;32233;49.500;7.764;2023-03-11T08:14:05;97844.25;;;8.88;46.26
7433;BME280;32233;49.500;7.764;2023-03-11T08:16:32;97840.38;;;8.31;46.44
7433;BME280;32233;49.500;7.764;2023-03-11T08:18:58;97826.03;;;8.54;46.23
7433;BME280;32233;49.500;7.764;2023-03-11T08:21:27;97829.69;;;7.52;47.71
7433;BME280;32233;49.500;7.764;2023-03-11T08:23:59;97835.94;;;7.09;47.63
7433;BME280;32233;49.500;7.764;2023-03-11T08:26:26;97836.13;;;7.08;49.00
7433;BME280;32233;49.500;7.764;2023-03-11T08:28:54;97833.06;;;7.45;48.33
7433;BME280;32233;49.500;7.764;2023-03-11T08:31:27;97842.72;;;7.86;46.30
7433;BME280;32233;49.500;7.764;2023-03-11T08:34:06;97846.16;;;6.98;48.04
7433;BME280;32233;49.500;7.764;2023-03-11T08:36:33;97840.19;;;8.33;45.92
7433;BME280;32233;49.500;7.764;2023-03-11T08:39:00;97854.94;;;6.27;49.38
7433;BME280;32233;49.500;7.764;2023-03-11T08:41:27;97855.44;;;6.37;50.64
7433;BME280;32233;49.500;7.764;2023-03-11T08:43:54;97843.88;;;7.70;47.26
7433;BME280;32233;49.500;7.764;2023-03-11T08:46:32;97855.13;;;7.44;46.93
7433;BME280;32233;49.500;7.764;2023-03-11T08:49:00;97851.03;;;7.35;48.12
7433;BME280;32233;49.500;7.764;2023-03-11T08:51:28;97846.63;;;8.10;43.64
7433;BME280;32233;49.500;7.764;2023-03-11T08:53:55;97837.78;;;8.38;43.38
7433;BME280;32233;49.500;7.764;2023-03-11T08:56:22;97842.41;;;7.13;44.00
7433;BME280;32233;49.500;7.764;2023-03-11T08:58:49;97854.03;;;6.63;43.97
7433;BME280;32233;49.500;7.764;2023-03-11T09:01:16;97856.44;;;5.13;46.72
7433;BME280;32233;49.500;7.764;2023-03-11T09:03:45;97850.44;;;5.85;46.39
7433;BME280;32233;49.500;7.764;2023-03-11T09:06:13;97866.66;;;6.53;45.03
7433;BME280;32233;49.500;7.764;2023-03-11T09:08:41;97860.38;;;6.75;44.75
7433;BME280;32233;49.500;7.764;2023-03-11T09:11:08;97856.75;;;5.54;47.93
7433;BME280;32233;49.500;7.764;2023-03-11T09:13:35;97855.97;;;5.09;46.86
7433;BME280;32233;49.500;7.764;2023-03-11T09:16:02;97856.31;;;6.73;44.30
7433;BME280;32233;49.500;7.764;2023-03-11T09:18:31;97858.75;;;6.74;43.30
7433;BME280;32233;49.500;7.764;2023-03-11T09:20:59;97859.50;;;5.31;47.57
7433;BME280;32233;49.500;7.764;2023-03-11T09:23:26;97859.97;;;6.50;42.53
7433;BME280;32233;49.500;7.764;2023-03-11T09:25:52;97840.81;;;8.55;39.68
7433;BME280;32233;49.500;7.764;2023-03-11T09:28:19;97838.66;;;7.77;39.09
7433;BME280;32233;49.500;7.764;2023-03-11T09:30:45;97847.16;;;7.79;38.96
7433;BME280;32233;49.500;7.764;2023-03-11T09:33:12;97851.19;;;7.68;38.50
7433;BME280;32233;49.500;7.764;2023-03-11T09:35:40;97853.13;;;7.12;40.04
7433;BME280;32233;49.500;7.764;2023-03-11T09:38:07;97858.78;;;6.53;39.08
7433;BME280;32233;49.500;7.764;2023-03-11T09:41:00;97855.78;;;5.26;41.46
7433;BME280;32233;49.500;7.764;2023-03-11T09:49:52;97871.22;;;3.61;45.20
7433;BME280;32233;49.500;7.764;2023-03-11T09:55:02;97861.47;;;5.44;43.18
7433;BME280;32233;49.500;7.764;2023-03-11T09:57:33;97853.81;;;7.75;39.87
7433;BME280;32233;49.500;7.764;2023-03-11T10:00:03;97856.78;;;8.33;36.63
7433;BME280;32233;49.500;7.764;2023-03-11T10:02:38;97848.09;;;8.39;37.86
7433;BME280;32233;49.500;7.764;2023-03-11T10:05:13;97857.53;;;7.39;39.59
7433;BME280;32233;49.500;7.764;2023-03-11T10:07:45;97859.28;;;7.74;40.66
7433;BME280;32233;49.500;7.764;2023-03-11T10:10:13;97853.09;;;9.27;35.61
7433;BME280;32233;49.500;7.764;2023-03-11T10:12:49;97862.50;;;8.90;36.49
7433;BME280;32233;49.500;7.764;2023-03-11T10:15:47;97863.28;;;9.04;35.98
7433;BME280;32233;49.500;7.764;2023-03-11T10:24:30;97885.47;;;5.62;42.20
7433;BME280;32233;49.500;7.764;2023-03-11T10:27:08;97877.63;;;5.62;41.16
7433;BME280;32233;49.500;7.764;2023-03-11T10:29:53;97881.13;;;4.81;42.29
7433;BME280;32233;49.500;7.764;2023-03-11T10:32:43;97883.94;;;4.79;43.47
7433;BME280;32233;49.500;7.764;2023-03-11T10:35:18;97881.97;;;4.96;43.68
7433;BME280;32233;49.500;7.764;2023-03-11T10:37:52;97879.56;;;4.94;44.20
7433;BME280;32233;49.500;7.764;2023-03-11T10:40:31;97879.06;;;4.76;44.97
7433;BME280;32233;49.500;7.764;2023-03-11T10:43:02;97880.16;;;4.82;43.12
7433;BME280;32233;49.500;7.764;2023-03-11T10:45:36;97883.75;;;4.43;43.66
7433;BME280;32233;49.500;7.764;2023-03-11T10:48:11;97892.94;;;4.16;45.27
7433;BME280;32233;49.500;7.764;2023-03-11T10:50:48;97897.56;;;4.14;44.96
7433;BME280;32233;49.500;7.764;2023-03-11T10:53:18;97888.94;;;4.28;45.03
7433;BME280;32233;49.500;7.764;2023-03-11T10:55:48;97889.94;;;5.47;42.57
7433;BME280;32233;49.500;7.764;2023-03-11T10:58:23;97872.88;;;7.36;39.46
7433;BME280;32233;49.500;7.764;2023-03-11T11:01:00;97865.09;;;8.30;38.46
7433;BME280;32233;49.500;7.764;2023-03-11T11:03:27;97871.81;;;8.79;35.57
7433;BME280;32233;49.500;7.764;2023-03-11T11:06:04;97877.69;;;7.74;36.84
7433;BME280;32233;49.500;7.764;2023-03-11T11:08:31;97883.75;;;6.42;38.86
7433;BME280;32233;49.500;7.764;2023-03-11T11:11:02;97874.75;;;6.30;42.60
7433;BME280;32233;49.500;7.764;2023-03-11T11:13:31;97877.50;;;5.85;42.38
7433;BME280;32233;49.500;7.764;2023-03-11T11:16:05;97879.09;;;5.86;43.08
7433;BME280;32233;49.500;7.764;2023-03-11T11:19:12;97889.47;;;5.58;44.44
7433;BME280;32233;49.500;7.764;2023-03-11T11:21:40;97888.28;;;5.02;45.54
7433;BME280;32233;49.500;7.764;2023-03-11T11:26:40;97884.25;;;5.43;44.69
7433;BME280;32233;49.500;7.764;2023-03-11T11:31:37;97887.75;;;5.51;43.49
7433;BME280;32233;49.500;7.764;2023-03-11T11:34:26;97877.06;;;5.67;41.91
7433;BME280;32233;49.500;7.764;2023-03-11T11:36:53;97875.75;;;4.97;43.24
7433;BME280;32233;49.500;7.764;2023-03-11T11:39:28;97876.94;;;5.09;45.54
7433;BME280;32233;49.500;7.764;2023-03-11T11:41:55;97870.25;;;7.84;39.29
7433;BME280;32233;49.500;7.764;2023-03-11T11:44:30;97870.53;;;7.54;35.07
7433;BME280;32233;49.500;7.764;2023-03-11T11:47:06;97864.34;;;10.06;35.04
7433;BME280;32233;49.500;7.764;2023-03-11T11:49:46;97867.31;;;7.59;36.89
7433;BME280;32233;49.500;7.764;2023-03-11T11:52:21;97862.22;;;8.12;38.08
7433;BME280;32233;49.500;7.764;2023-03-11T11:55:05;97861.38;;;7.98;35.88
7433;BME280;32233;49.500;7.764;2023-03-11T11:57:33;97853.81;;;9.54;33.43
7433;BME280;32233;49.500;7.764;2023-03-11T12:00:00;97842.25;;;12.99;30.48
7433;BME280;32233;49.500;7.764;2023-03-11T12:02:45;97830.34;;;12.55;31.00
7433;BME280;32233;49.500;7.764;2023-03-11T12:07:54;97833.66;;;14.58;28.19
7433;BME280;32233;49.500;7.764;2023-03-11T12:10:43;97839.34;;;14.33;28.67
7433;BME280;32233;49.500;7.764;2023-03-11T12:18:43;97827.16;;;14.21;27.68
7433;BME280;32233;49.500;7.764;2023-03-11T12:26:41;97836.66;;;14.62;25.53
7433;BME280;32233;49.500;7.764;2023-03-11T12:29:34;97840.50;;;13.80;27.12
7433;BME280;32233;49.500;7.764;2023-03-11T12:32:02;97827.00;;;14.44;26.90
7433;BME280;32233;49.500;7.764;2023-03-11T12:34:33;97820.06;;;13.41;27.88
7433;BME280;32233;49.500;7.764;2023-03-11T12:37:01;97826.66;;;13.26;28.14
7433;BME280;32233;49.500;7.764;2023-03-11T12:39:32;97820.31;;;12.45;27.68
7433;BME280;32233;49.500;7.764;2023-03-11T12:42:22;97819.72;;;13.02;26.90
7433;BME280;32233;49.500;7.764;2023-03-11T12:44:50;97814.13;;;12.09;29.43
7433;BME280;32233;49.500;7.764;2023-03-11T12:47:20;97815.88;;;11.19;29.34
7433;BME280;32233;49.500;7.764;2023-03-11T12:49:53;97820.84;;;11.45;31.30
7433;BME280;32233;49.500;7.764;2023-03-11T12:52:28;97839.03;;;12.74;28.73
7433;BME280;32233;49.500;7.764;2023-03-11T12:57:33;97841.56;;;13.39;27.55
7433;BME280;32233;49.500;7.764;2023-03-11T13:08:20;97845.91;;;12.09;29.33
7433;BME280;32233;49.500;7.764;2023-03-11T13:10:50;97855.00;;;10.41;32.91
7433;BME280;32233;49.500;7.764;2023-03-11T13:18:42;97825.19;;;8.27;36.18
7433;BME280;32233;49.500;7.764;2023-03-11T13:27:01;97816.09;;;8.56;33.97
7433;BME280;32233;49.500;7.764;2023-03-11T13:29:59;97823.56;;;8.85;33.14
7433;BME280;32233;49.500;7.764;2023-03-11T13:38:37;97840.66;;;6.36;35.82
7433;BME280;32233;49.500;7.764;2023-03-11T13:41:14;97846.75;;;6.65;39.65
7433;BME280;32233;49.500;7.764;2023-03-11T13:43:45;97837.16;;;7.55;38.15
7433;BME280;32233;49.500;7.764;2023-03-11T13:46:23;97842.53;;;7.33;37.83
7433;BME280;32233;49.500;7.764;2023-03-11T13:49:00;97846.34;;;7.72;36.23
7433;BME280;32233;49.500;7.764;2023-03-11T13:51:42;97841.44;;;7.62;39.52
7433;BME280;32233;49.500;7.764;2023-03-11T13:56:49;97841.75;;;6.70;37.54
7433;BME280;32233;49.500;7.764;2023-03-11T13:59:32;97847.47;;;6.80;38.37
7433;BME280;32233;49.500;7.764;2023-03-11T14:02:15;97840.22;;;6.54;40.53
7433;BME280;32233;49.500;7.764;2023-03-11T14:04:49;97834.44;;;6.16;39.84
7433;BME280;32233;49.500;7.764;2023-03-11T14:09:45;97848.53;;;6.86;40.46
7433;BME280;32233;49.500;7.764;2023-03-11T14:12:12;97857.09;;;7.01;40.67
7433;BME280;32233;49.500;7.764;2023-03-11T14:14:50;97855.91;;;6.48;42.63
7433;BME280;32233;49.500;7.764;2023-03-11T14:17:20;97865.25;;;6.78;41.73
7433;BME280;32233;49.500;7.764;2023-03-11T14:20:25;97868.16;;;6.40;42.28
7433;BME280;32233;49.500;7.764;2023-03-11T14:22:53;97868.63;;;5.86;43.06
7433;BME280;32233;49.500;7.764;2023-03-11T14:25:24;97874.28;;;5.54;43.72
7433;BME280;32233;49.500;7.764;2023-03-11T14:27:57;97876.94;;;5.39;44.89
7433;BME280;32233;49.500;7.764;2023-03-11T14:30:30;97871.44;;;5.19;45.06
7433;BME280;32233;49.500;7.764;2023-03-11T14:35:29;97869.53;;;5.28;45.40
7433;BME280;32233;49.500;7.764;2023-03-11T14:37:56;97864.47;;;4.82;46.37
7433;BME280;32233;49.500;7.764;2023-03-11T14:42:51;97864.38;;;5.19;45.47